createdAt,value
2022-12-11T00:01:10.617Z,90.00
2022-12-11T00:03:39.147Z,90.01
2022-12-11T00:06:10.164Z,89.49
2022-12-11T00:08:38.361Z,89.49
2022-12-11T00:11:06.789Z,89.54
2022-12-11T00:13:34.746Z,88.81
2022-12-11T00:16:02.722Z,88.48
2022-12-11T00:18:30.413Z,88.57
2022-12-11T00:21:01.520Z,88.87
2022-12-11T00:23:30.940Z,89.59
2022-12-11T00:25:59.464Z,89.87
2022-12-11T00:28:27.702Z,89.13
2022-12-11T00:30:55.618Z,89.93
2022-12-11T00:33:23.348Z,89.22
2022-12-11T00:35:51.220Z,88.64
2022-12-11T00:38:20.744Z,88.71
2022-12-11T00:40:50.082Z,88.89
2022-12-11T00:43:18.527Z,88.19
2022-12-11T00:45:48.176Z,88.40
2022-12-11T00:48:16.150Z,88.42
2022-12-11T00:50:43.904Z,87.66
2022-12-11T00:53:11.831Z,88.37
2022-12-11T00:55:40.494Z,88.01
2022-12-11T00:58:10.395Z,88.16
2022-12-11T01:00:42.332Z,88.61
2022-12-11T01:03:10.888Z,88.82
2022-12-11T01:05:38.810Z,89.03
2022-12-11T01:08:07.221Z,88.44
2022-12-11T01:10:34.620Z,89.00
2022-12-11T01:13:04.670Z,88.92
2022-12-11T01:15:41.075Z,88.77
2022-12-11T01:18:10.068Z,88.35
2022-12-11T01:20:40.012Z,88.47
2022-12-11T01:23:08.327Z,88.73
2022-12-11T01:25:39.046Z,87.94
2022-12-11T01:28:07.922Z,89.08
2022-12-11T01:30:37.656Z,88.19
2022-12-11T01:33:05.684Z,88.25
2022-12-11T01:35:33.811Z,87.65
2022-12-11T01:38:02.851Z,87.45
2022-12-11T01:40:30.808Z,87.26
2022-12-11T01:42:58.736Z,87.33
2022-12-11T01:45:31.378Z,87.43
2022-12-11T01:48:07.673Z,87.14
2022-12-11T01:50:39.626Z,86.99
2022-12-11T01:53:09.966Z,86.34
2022-12-11T01:55:39.857Z,86.54
2022-12-11T01:58:09.426Z,86.00
2022-12-11T02:00:37.385Z,86.23
2022-12-11T02:03:06.633Z,86.72
2022-12-11T02:05:34.789Z,86.64
2022-12-11T02:08:04.053Z,86.33
2022-12-11T02:10:44.214Z,86.45
2022-12-11T02:13:14.581Z,87.38
2022-12-11T02:15:49.812Z,86.19
2022-12-11T02:18:26.427Z,86.15
2022-12-11T02:20:59.862Z,84.75
2022-12-11T02:24:25.902Z,85.94
2022-12-11T02:27:12.437Z,84.40
2022-12-11T02:29:48.282Z,83.89
2022-12-11T02:32:20.441Z,84.00
2022-12-11T02:34:55.164Z,83.73
2022-12-11T02:37:25.852Z,83.58
2022-12-11T02:39:55.982Z,84.03
2022-12-11T02:42:29.352Z,84.23
2022-12-11T02:45:01.202Z,84.07
2022-12-11T02:47:32.049Z,83.41
2022-12-11T02:50:03.105Z,83.16
2022-12-11T02:52:34.131Z,83.90
2022-12-11T02:55:04.510Z,83.02
2022-12-11T02:57:39.218Z,83.16
2022-12-11T03:00:10.383Z,83.43
2022-12-11T03:02:39.402Z,82.76
2022-12-11T03:05:08.656Z,83.55
2022-12-11T03:07:40.427Z,82.86
2022-12-11T03:10:10.986Z,82.16
2022-12-11T03:12:41.425Z,83.04
2022-12-11T03:15:15.701Z,82.79
2022-12-11T03:17:56.074Z,82.21
2022-12-11T03:20:35.720Z,82.81
2022-12-11T03:23:14.537Z,82.16
2022-12-11T03:25:47.766Z,81.42
2022-12-11T03:28:19.944Z,82.28
2022-12-11T03:30:52.405Z,82.43
2022-12-11T03:33:24.964Z,82.43
2022-12-11T03:35:57.117Z,83.39
2022-12-11T03:38:29.300Z,82.50
2022-12-11T03:41:02.241Z,82.23
2022-12-11T03:43:31.984Z,82.96
2022-12-11T03:46:02.025Z,82.66
2022-12-11T03:48:34.731Z,83.55
2022-12-11T03:51:06.365Z,83.49
2022-12-11T03:53:35.410Z,83.16
2022-12-11T03:56:04.913Z,82.87
2022-12-11T03:58:33.213Z,83.17
2022-12-11T04:01:02.558Z,83.99
2022-12-11T04:03:30.446Z,83.21
2022-12-11T04:05:58.487Z,83.31
2022-12-11T04:08:26.374Z,83.08
2022-12-11T04:11:14.983Z,82.93
2022-12-11T04:13:43.353Z,82.86
2022-12-11T04:16:11.692Z,82.35
2022-12-11T04:18:56.935Z,81.59
2022-12-11T04:21:42.309Z,82.81
2022-12-11T04:24:16.024Z,82.52
2022-12-11T04:26:44.611Z,82.61
2022-12-11T04:29:12.615Z,81.80
2022-12-11T04:31:41.990Z,82.22
2022-12-11T04:34:10.501Z,82.54
2022-12-11T04:36:38.779Z,82.29
2022-12-11T04:39:07.358Z,82.72
2022-12-11T04:41:35.306Z,82.68
2022-12-11T04:44:03.207Z,82.57
2022-12-11T04:46:31.418Z,82.56
2022-12-11T04:49:00.867Z,82.70
2022-12-11T04:51:29.296Z,83.01
2022-12-11T04:53:57.174Z,82.35
2022-12-11T04:56:24.875Z,82.89
2022-12-11T04:58:52.799Z,82.35
2022-12-11T05:01:23.307Z,81.90
2022-12-11T05:03:51.981Z,81.87
2022-12-11T05:06:21.211Z,82.27
2022-12-11T05:08:49.095Z,81.90
2022-12-11T05:11:17.420Z,81.05
2022-12-11T05:13:46.228Z,81.09
2022-12-11T05:16:17.392Z,81.31
2022-12-11T05:18:45.513Z,81.59
2022-12-11T05:21:15.264Z,81.65
2022-12-11T05:23:44.709Z,81.38
2022-12-11T05:26:14.623Z,80.84
2022-12-11T05:28:43.169Z,80.44
2022-12-11T05:31:15.129Z,81.40
2022-12-11T05:33:43.615Z,80.73
2022-12-11T05:36:16.849Z,81.06
2022-12-11T05:38:46.442Z,80.57
2022-12-11T05:41:16.362Z,80.79
2022-12-11T05:43:44.474Z,80.57
2022-12-11T05:46:14.613Z,80.67
2022-12-11T05:48:43.785Z,80.50
2022-12-11T05:51:12.314Z,80.54
2022-12-11T05:53:41.532Z,81.16
2022-12-11T05:56:13.513Z,80.66
2022-12-11T05:58:42.439Z,80.70
2022-12-11T06:01:12.257Z,81.16
2022-12-11T06:03:40.305Z,81.06
2022-12-11T06:06:08.769Z,80.69
2022-12-11T06:08:36.743Z,80.84
2022-12-11T06:11:04.929Z,79.97
2022-12-11T06:13:35.367Z,79.53
2022-12-11T06:16:05.561Z,80.01
2022-12-11T06:18:37.339Z,80.43
2022-12-11T06:21:12.853Z,80.04
2022-12-11T06:23:41.366Z,80.06
2022-12-11T06:26:09.388Z,79.92
2022-12-11T06:28:38.927Z,80.03
2022-12-11T06:31:08.119Z,80.54
2022-12-11T06:33:36.784Z,79.84
2022-12-11T06:36:05.744Z,79.48
2022-12-11T06:38:33.714Z,79.60
2022-12-11T06:41:04.719Z,80.12
2022-12-11T06:43:32.816Z,79.80
2022-12-11T06:46:04.966Z,80.06
2022-12-11T06:48:33.262Z,80.02
2022-12-11T06:51:01.387Z,79.61
2022-12-11T06:53:29.376Z,79.71
2022-12-11T06:55:57.142Z,79.91
2022-12-11T06:58:25.270Z,80.05
2022-12-11T07:00:53.192Z,79.71
2022-12-11T07:03:22.286Z,79.85
2022-12-11T07:05:51.727Z,79.86
2022-12-11T07:08:19.702Z,79.78
2022-12-11T07:10:47.593Z,80.46
2022-12-11T07:13:15.324Z,80.06
2022-12-11T07:15:43.254Z,80.81
2022-12-11T07:18:11.226Z,80.22
2022-12-11T07:20:40.251Z,80.60
2022-12-11T07:23:08.138Z,80.56
2022-12-11T07:25:37.911Z,81.27
2022-12-11T07:28:06.138Z,80.69
2022-12-11T07:30:34.082Z,79.82
2022-12-11T07:33:02.318Z,80.99
2022-12-11T07:35:31.094Z,80.92
2022-12-11T07:38:00.479Z,81.20
2022-12-11T07:40:28.765Z,80.48
2022-12-11T07:42:56.646Z,80.29
2022-12-11T07:45:26.236Z,79.98
2022-12-11T07:47:54.195Z,80.08
2022-12-11T07:50:21.981Z,80.80
2022-12-11T07:52:49.942Z,80.66
2022-12-11T07:55:19.030Z,80.41
2022-12-11T07:57:47.017Z,81.41
2022-12-11T08:00:15.605Z,81.24
2022-12-11T08:02:43.586Z,80.97
2022-12-11T08:05:12.373Z,80.98
2022-12-11T08:07:41.008Z,80.88
2022-12-11T08:10:09.415Z,80.94
2022-12-11T08:12:38.649Z,80.96
2022-12-11T08:15:08.047Z,81.53
2022-12-11T08:17:39.982Z,80.76
2022-12-11T08:20:09.482Z,81.62
2022-12-11T08:22:37.388Z,81.43
2022-12-11T08:25:05.905Z,82.09
2022-12-11T08:27:33.819Z,82.10
2022-12-11T08:30:02.954Z,82.01
2022-12-11T08:32:31.042Z,81.35
2022-12-11T08:34:58.749Z,81.64
2022-12-11T08:37:26.705Z,81.41
2022-12-11T08:39:54.741Z,81.45
2022-12-11T08:42:22.682Z,81.72
2022-12-11T08:44:51.710Z,81.14
2022-12-11T08:47:23.035Z,80.93
2022-12-11T08:49:50.978Z,81.45
2022-12-11T08:52:18.776Z,80.40
2022-12-11T08:54:46.686Z,80.93
2022-12-11T08:57:15.198Z,80.75
2022-12-11T08:59:43.177Z,80.67
2022-12-11T09:02:12.541Z,80.34
2022-12-11T09:04:42.428Z,80.79
2022-12-11T09:07:10.326Z,79.83
2022-12-11T09:09:38.120Z,79.46
2022-12-11T09:12:06.484Z,80.16
2022-12-11T09:14:35.460Z,79.85
2022-12-11T09:17:05.447Z,80.06
2022-12-11T09:19:33.399Z,80.00
2022-12-11T09:22:02.779Z,79.28
2022-12-11T09:24:30.756Z,79.57
2022-12-11T09:26:58.688Z,79.45
2022-12-11T09:29:26.629Z,79.50
2022-12-11T09:31:54.486Z,79.30
2022-12-11T09:34:28.887Z,79.91
2022-12-11T09:36:57.604Z,79.22
2022-12-11T09:39:26.931Z,79.53
2022-12-11T09:42:02.210Z,79.46
2022-12-11T09:44:43.250Z,79.78
2022-12-11T09:47:28.569Z,79.57
2022-12-11T09:50:04.478Z,79.79
2022-12-11T09:52:36.962Z,78.58
2022-12-11T09:55:15.966Z,79.02
2022-12-11T09:57:54.263Z,78.96
2022-12-11T10:00:29.909Z,78.70
2022-12-11T10:03:34.056Z,79.28
2022-12-11T10:06:08.378Z,78.14
2022-12-11T10:08:42.901Z,77.97
2022-12-11T10:11:27.037Z,78.47
2022-12-11T10:14:06.289Z,78.17
2022-12-11T10:16:40.049Z,78.13
2022-12-11T10:19:15.804Z,78.37
2022-12-11T10:21:44.327Z,78.50
2022-12-11T10:24:41.880Z,77.88
2022-12-11T10:27:16.162Z,76.66
2022-12-11T10:29:44.260Z,77.90
2022-12-11T10:32:22.548Z,77.88
2022-12-11T10:34:57.782Z,78.04
2022-12-11T10:37:25.778Z,77.11
2022-12-11T10:39:53.886Z,77.33
2022-12-11T10:42:24.186Z,76.38
2022-12-11T10:45:00.505Z,75.85
2022-12-11T10:47:29.298Z,76.80
2022-12-11T10:49:58.872Z,75.85
2022-12-11T10:52:31.595Z,74.37
2022-12-11T10:55:03.079Z,75.08
2022-12-11T10:57:35.170Z,74.38
2022-12-11T11:00:06.053Z,72.21
2022-12-11T11:02:38.433Z,72.19
2022-12-11T11:05:14.490Z,71.47
2022-12-11T11:07:42.761Z,66.63
2022-12-11T11:10:17.491Z,64.99
2022-12-11T11:12:48.238Z,67.65
2022-12-11T11:15:19.165Z,67.33
2022-12-11T11:17:54.944Z,65.04
2022-12-11T11:20:25.568Z,60.84
2022-12-11T11:22:55.891Z,59.79
2022-12-11T11:25:26.607Z,59.69
2022-12-11T11:27:58.948Z,65.08
2022-12-11T11:30:30.370Z,65.14
2022-12-11T11:33:00.753Z,58.90
2022-12-11T11:35:30.245Z,51.26
2022-12-11T11:38:05.165Z,45.09
2022-12-11T11:40:38.805Z,46.33
2022-12-11T11:43:18.270Z,47.56
2022-12-11T11:45:54.695Z,43.61
2022-12-11T11:48:36.746Z,42.86
2022-12-11T11:51:14.910Z,45.13
2022-12-11T11:53:48.949Z,48.91
2022-12-11T11:56:26.687Z,52.61
2022-12-11T11:59:08.453Z,52.21
2022-12-11T12:01:36.534Z,54.74
2022-12-11T12:04:05.768Z,59.11
2022-12-11T12:06:50.555Z,55.95
2022-12-11T12:09:29.646Z,57.73
2022-12-11T12:12:07.831Z,59.38
2022-12-11T12:14:52.630Z,60.26
2022-12-11T12:17:27.763Z,58.39
2022-12-11T12:20:04.194Z,61.37
2022-12-11T12:22:50.738Z,56.12
2022-12-11T12:25:24.555Z,52.36
2022-12-11T12:27:57.807Z,52.95
2022-12-11T12:30:32.505Z,54.98
2022-12-11T12:33:16.213Z,56.16
2022-12-11T12:35:55.072Z,55.98
2022-12-11T12:38:28.733Z,56.58
2022-12-11T12:41:14.045Z,58.72
2022-12-11T12:43:55.991Z,60.19
2022-12-11T12:46:39.624Z,58.95
2022-12-11T12:49:14.859Z,58.37
2022-12-11T12:51:44.571Z,57.54
2022-12-11T12:54:18.991Z,59.88
2022-12-11T12:56:49.022Z,61.95
2022-12-11T12:59:22.881Z,59.11
2022-12-11T13:01:55.214Z,58.35
2022-12-11T13:07:30.667Z,62.07
2022-12-11T13:10:06.204Z,63.44
2022-12-11T13:12:42.571Z,62.90
2022-12-11T13:15:26.027Z,63.33
2022-12-11T13:17:55.917Z,64.61
2022-12-11T13:20:26.500Z,66.41
2022-12-11T13:23:16.133Z,67.14
2022-12-11T13:25:50.965Z,68.27
2022-12-11T13:28:25.845Z,69.21
2022-12-11T13:31:02.599Z,68.03
2022-12-11T13:33:33.398Z,68.22
2022-12-11T13:36:28.618Z,69.95
2022-12-11T13:38:59.650Z,68.78
2022-12-11T13:41:28.635Z,70.40
2022-12-11T13:43:58.727Z,69.70
2022-12-11T13:46:30.224Z,70.95
2022-12-11T13:49:02.800Z,71.15
2022-12-11T13:51:34.908Z,70.66
2022-12-11T13:54:16.955Z,72.17
2022-12-11T13:57:00.428Z,72.33
2022-12-11T13:59:31.287Z,73.30
2022-12-11T14:02:03.959Z,73.62
2022-12-11T14:04:35.444Z,75.08
2022-12-11T14:07:07.302Z,74.84
2022-12-11T14:09:37.933Z,75.08
2022-12-11T14:12:06.517Z,74.23
2022-12-11T14:14:42.907Z,74.83
2022-12-11T14:17:15.124Z,74.98
2022-12-11T14:19:50.762Z,75.97
2022-12-11T14:22:21.252Z,75.61
2022-12-11T14:24:51.047Z,75.57
2022-12-11T14:27:19.833Z,77.35
2022-12-11T14:29:48.579Z,76.54
2022-12-11T14:32:25.101Z,76.31
2022-12-11T14:34:55.301Z,77.34
2022-12-11T14:37:24.869Z,76.68
2022-12-11T14:39:59.365Z,77.63
2022-12-11T14:42:31.191Z,77.02
2022-12-11T14:45:04.494Z,77.13
2022-12-11T14:47:40.026Z,77.52
2022-12-11T14:50:18.481Z,77.81
2022-12-11T14:52:49.055Z,77.77
2022-12-11T14:55:21.077Z,78.16
2022-12-11T14:57:55.172Z,78.64
2022-12-11T15:00:25.779Z,78.12
2022-12-11T15:03:01.856Z,78.64
2022-12-11T15:05:38.831Z,78.36
2022-12-11T15:08:24.589Z,79.58
2022-12-11T15:11:05.679Z,79.94
2022-12-11T15:13:34.795Z,79.86
2022-12-11T15:16:04.188Z,79.91
2022-12-11T15:18:35.241Z,80.43
2022-12-11T15:21:09.432Z,80.63
2022-12-11T15:23:48.422Z,80.51
2022-12-11T15:26:16.289Z,80.66
2022-12-11T15:28:44.514Z,81.37
2022-12-11T15:31:26.354Z,81.83
2022-12-11T15:33:54.585Z,80.97
2022-12-11T15:36:27.594Z,81.46
2022-12-11T15:38:55.564Z,82.37
2022-12-11T15:41:24.713Z,82.78
2022-12-11T15:43:58.373Z,83.24
2022-12-11T15:46:27.498Z,83.15
2022-12-11T15:48:59.420Z,83.19
2022-12-11T15:51:29.190Z,83.43
2022-12-11T15:53:57.056Z,84.06
2022-12-11T15:56:24.930Z,83.55
2022-12-11T15:58:52.732Z,83.56
2022-12-11T16:01:20.786Z,84.47
2022-12-11T16:03:50.374Z,84.15
2022-12-11T16:06:18.290Z,85.10
2022-12-11T16:08:47.946Z,85.03
2022-12-11T16:11:15.923Z,84.88
2022-12-11T16:13:43.641Z,85.35
2022-12-11T16:16:11.693Z,85.74
2022-12-11T16:18:39.639Z,85.73
2022-12-11T16:21:09.300Z,85.62
2022-12-11T16:23:37.090Z,86.00
2022-12-11T16:26:09.930Z,86.80
2022-12-11T16:28:37.966Z,86.28
2022-12-11T16:31:11.654Z,86.53
2022-12-11T16:33:39.698Z,86.55
2022-12-11T16:36:14.645Z,86.81
2022-12-11T16:38:49.811Z,87.02
2022-12-11T16:41:23.662Z,87.15
2022-12-11T16:43:52.265Z,86.87
2022-12-11T16:46:21.133Z,86.12
2022-12-11T16:48:49.164Z,86.37
2022-12-11T16:51:17.929Z,86.62
2022-12-11T16:53:46.071Z,86.26
2022-12-11T16:56:13.978Z,86.78
2022-12-11T16:58:43.104Z,86.41
2022-12-11T17:01:12.101Z,86.47
2022-12-11T17:03:41.896Z,86.25
2022-12-11T17:06:10.902Z,86.07
2022-12-11T17:08:39.279Z,86.13
2022-12-11T17:11:08.467Z,86.33
2022-12-11T17:13:36.624Z,85.66
2022-12-11T17:16:07.402Z,85.29
2022-12-11T17:18:35.447Z,85.42
2022-12-11T17:21:06.730Z,85.58
2022-12-11T17:23:35.737Z,85.75
2022-12-11T17:26:03.787Z,85.37
2022-12-11T17:28:32.274Z,85.93
2022-12-11T17:31:00.212Z,86.39
2022-12-11T17:33:29.512Z,86.41
2022-12-11T17:36:00.496Z,86.62
2022-12-11T17:38:28.517Z,87.23
2022-12-11T17:40:56.612Z,87.08
2022-12-11T17:43:24.900Z,86.98
2022-12-11T17:45:55.057Z,87.07
2022-12-11T17:48:23.120Z,87.74
2022-12-11T17:50:54.039Z,87.34
2022-12-11T17:53:23.502Z,87.57
2022-12-11T17:55:52.136Z,87.67
2022-12-11T17:58:22.047Z,87.66
2022-12-11T18:00:52.153Z,87.86
2022-12-11T18:03:20.261Z,88.05
2022-12-11T18:05:50.507Z,87.77
2022-12-11T18:08:21.391Z,87.26
2022-12-11T18:10:49.498Z,87.12
2022-12-11T18:13:17.513Z,87.46
2022-12-11T18:15:45.791Z,87.72
2022-12-11T18:18:14.077Z,88.02
2022-12-11T18:20:42.022Z,88.02
2022-12-11T18:23:09.816Z,88.04
2022-12-11T18:25:39.063Z,89.10
2022-12-11T18:28:07.204Z,90.21
2022-12-11T18:30:34.995Z,90.73
2022-12-11T18:33:03.103Z,90.75
2022-12-11T18:35:31.860Z,91.43
2022-12-11T18:37:59.773Z,91.00
2022-12-11T18:40:28.728Z,91.18
2022-12-11T18:42:59.251Z,91.10
2022-12-11T18:45:27.220Z,90.88
2022-12-11T18:47:56.452Z,89.98
2022-12-11T18:50:24.429Z,89.58
2022-12-11T18:52:54.140Z,89.73
2022-12-11T18:55:22.112Z,88.80
2022-12-11T18:57:49.810Z,89.42
2022-12-11T19:00:20.102Z,88.74
2022-12-11T19:02:51.438Z,89.16
2022-12-11T19:05:19.879Z,88.81
2022-12-11T19:07:47.951Z,89.16
2022-12-11T19:10:15.985Z,89.32
2022-12-11T19:12:43.885Z,89.07
2022-12-11T19:15:12.948Z,89.52
2022-12-11T19:17:43.450Z,89.99
2022-12-11T19:20:40.408Z,90.07
2022-12-11T19:23:00.823Z,90.57
2022-12-11T19:25:28.881Z,90.77
2022-12-11T19:27:57.444Z,91.09
2022-12-11T19:30:25.949Z,91.13
2022-12-11T19:32:55.846Z,91.38
2022-12-11T19:35:23.984Z,91.34
2022-12-11T19:37:51.726Z,92.28
2022-12-11T19:40:21.695Z,92.43
2022-12-11T19:42:49.589Z,92.29
2022-12-11T19:45:18.230Z,92.26
2022-12-11T19:47:46.193Z,92.95
2022-12-11T19:50:15.479Z,93.29
2022-12-11T19:52:46.341Z,93.07
2022-12-11T19:55:15.703Z,92.43
2022-12-11T19:57:44.270Z,92.26
2022-12-11T20:00:12.555Z,93.21
2022-12-11T20:02:40.760Z,92.71
2022-12-11T20:05:10.042Z,93.20
2022-12-11T20:07:40.047Z,94.47
2022-12-11T20:10:09.192Z,95.66
2022-12-11T20:12:37.205Z,95.55
2022-12-11T20:15:05.915Z,95.34
2022-12-11T20:17:34.349Z,95.98
2022-12-11T20:20:02.412Z,95.34
2022-12-11T20:22:30.301Z,95.38
2022-12-11T20:24:59.644Z,95.01
2022-12-11T20:27:28.502Z,95.80
2022-12-11T20:29:56.513Z,94.82
2022-12-11T20:32:24.765Z,94.91
2022-12-11T20:34:56.518Z,94.41
2022-12-11T20:37:28.881Z,95.25
2022-12-11T20:39:56.991Z,95.87
2022-12-11T20:42:26.183Z,95.21
2022-12-11T20:44:54.324Z,95.21
2022-12-11T20:47:22.684Z,95.42
2022-12-11T20:49:52.372Z,96.25
2022-12-11T20:52:20.860Z,96.28
2022-12-11T20:54:48.811Z,95.95
2022-12-11T20:57:16.877Z,95.88
2022-12-11T20:59:46.384Z,96.06
2022-12-11T21:02:14.337Z,95.88
2022-12-11T21:04:42.486Z,96.04
2022-12-11T21:07:11.068Z,95.84
2022-12-11T21:09:39.855Z,94.63
2022-12-11T21:12:08.358Z,94.41
2022-12-11T21:14:36.785Z,94.86
2022-12-11T21:17:06.679Z,94.63
2022-12-11T21:19:34.662Z,94.61
2022-12-11T21:22:03.680Z,96.46
2022-12-11T21:24:32.318Z,96.70
2022-12-11T21:27:00.233Z,97.30
2022-12-11T21:29:29.941Z,96.27
2022-12-11T21:31:58.650Z,96.97
2022-12-11T21:34:28.489Z,96.39
2022-12-11T21:36:57.148Z,97.95
2022-12-11T21:39:26.314Z,97.18
2022-12-11T21:41:54.445Z,95.86
2022-12-11T21:47:10.448Z,95.27
2022-12-11T21:49:39.691Z,96.23
2022-12-11T21:52:08.341Z,94.91
2022-12-11T21:54:36.562Z,95.65
2022-12-11T21:57:05.896Z,95.41
2022-12-11T21:59:33.949Z,95.94
2022-12-11T22:02:01.711Z,95.46
2022-12-11T22:04:29.730Z,95.60
2022-12-11T22:06:58.886Z,96.09
2022-12-11T22:09:27.232Z,96.15
2022-12-11T22:11:58.531Z,95.96
2022-12-11T22:14:27.316Z,95.37
2022-12-11T22:16:55.324Z,95.97
2022-12-11T22:19:26.566Z,97.96
2022-12-11T22:21:57.026Z,99.46
2022-12-11T22:24:26.311Z,98.76
2022-12-11T22:26:54.756Z,96.48
2022-12-11T22:29:22.701Z,95.84
2022-12-11T22:31:50.594Z,96.97
2022-12-11T22:34:18.945Z,98.43
2022-12-11T22:36:46.825Z,99.30
2022-12-11T22:39:15.222Z,96.01
2022-12-11T22:41:44.501Z,96.31
2022-12-11T22:44:15.962Z,96.64
2022-12-11T22:46:49.723Z,96.27
2022-12-11T22:49:18.693Z,97.36
2022-12-11T22:51:46.644Z,98.87
2022-12-11T22:54:14.591Z,97.70
2022-12-11T22:56:43.874Z,98.12
2022-12-11T22:59:11.948Z,97.86
2022-12-11T23:01:40.406Z,98.23
2022-12-11T23:04:08.479Z,96.56
2022-12-11T23:06:36.246Z,96.29
2022-12-11T23:09:05.489Z,96.80
2022-12-11T23:11:36.249Z,95.67
2022-12-11T23:14:07.514Z,96.00
2022-12-11T23:16:35.822Z,95.03
2022-12-11T23:19:04.741Z,95.26
2022-12-11T23:21:33.289Z,95.16
2022-12-11T23:24:01.612Z,95.04
2022-12-11T23:26:29.752Z,95.24
2022-12-11T23:28:58.130Z,96.30
2022-12-11T23:31:28.370Z,95.83
2022-12-11T23:33:57.220Z,95.87
2022-12-11T23:36:26.471Z,97.18
2022-12-11T23:38:55.345Z,96.34
2022-12-11T23:41:24.236Z,96.76
2022-12-11T23:43:52.928Z,95.75
2022-12-11T23:46:22.757Z,95.37
2022-12-11T23:48:53.445Z,95.49
2022-12-11T23:51:22.971Z,95.30
2022-12-11T23:53:51.476Z,95.29
2022-12-11T23:56:22.204Z,94.99
2022-12-11T23:58:50.192Z,95.55
